Time;durP1;ratioP1;P1;durP2;ratioP2;P2;SDS_P1;SDS_P2;PMS_P1;PMS_P2;Temp;Humidity;BMP_temperature;BMP_pressure;BME280_temperature;BME280_humidity;BME280_pressure;Samples;Min_cycle;Max_cycle;Signal;HPM_P1;HPM_P2
2023/09/24 00:01:15;;;;;;;7.78;5.03;;;;;;;12.29;66.33;101080.97;10427801;28;20135;-56
2023/09/24 00:06:17;;;;;;;12.60;5.25;;;;;;;12.30;66.00;101082.63;10426674;28;20584;-56
2023/09/24 00:11:18;;;;;;;9.82;5.03;;;;;;;12.27;65.90;101080.28;10431758;28;20045;-56
2023/09/24 00:16:20;;;;;;;8.75;3.65;;;;;;;12.22;66.54;101091.59;10427091;28;20057;-56
2023/09/24 00:21:21;;;;;;;7.10;3.30;;;;;;;12.19;66.28;101100.00;10428433;28;20057;-56
2023/09/24 00:26:25;;;;;;;8.50;3.05;;;;;;;12.16;66.40;101102.19;10432380;28;20064;-57
2023/09/24 00:31:26;;;;;;;9.38;3.45;;;;;;;12.13;66.32;101113.31;10429022;28;20060;-57
2023/09/24 00:36:28;;;;;;;4.30;2.45;;;;;;;12.06;66.31;101113.13;10428140;28;20048;-56
2023/09/24 00:41:29;;;;;;;3.25;2.30;;;;;;;12.01;66.33;101112.81;10427186;28;20049;-57
2023/09/24 00:46:31;;;;;;;6.85;2.60;;;;;;;11.80;66.93;101114.06;10421448;28;20076;-56
2023/09/24 00:51:32;;;;;;;5.47;2.50;;;;;;;11.81;67.02;101110.38;10429118;28;20460;-57
2023/09/24 00:56:34;;;;;;;3.40;2.45;;;;;;;11.82;66.74;101109.34;10424856;28;20387;-57
2023/09/24 01:01:36;;;;;;;6.25;2.75;;;;;;;11.81;66.72;101122.97;10411250;28;20395;-56
2023/09/24 01:06:39;;;;;;;4.68;2.30;;;;;;;11.79;67.02;101116.91;10419522;28;20056;-56
2023/09/24 01:11:41;;;;;;;3.60;2.22;;;;;;;11.68;67.15;101118.91;10421178;28;20055;-54
2023/09/24 01:16:43;;;;;;;4.13;2.13;;;;;;;11.63;67.57;101123.97;10426372;28;20045;-56
2023/09/24 01:21:47;;;;;;;6.30;1.90;;;;;;;11.65;67.28;101124.66;10423321;28;20053;-56
2023/09/24 01:26:49;;;;;;;4.15;2.95;;;;;;;11.62;67.15;101114.19;10423483;28;20454;-56
2023/09/24 01:31:51;;;;;;;4.18;1.70;;;;;;;11.59;67.10;101105.59;10428837;28;20123;-54
2023/09/24 01:36:53;;;;;;;4.95;2.08;;;;;;;11.56;67.52;101114.84;10422294;28;20041;-56
2023/09/24 01:41:55;;;;;;;5.93;1.80;;;;;;;11.47;67.79;101127.44;10421899;28;20072;-55
2023/09/24 01:46:58;;;;;;;3.25;2.08;;;;;;;11.46;67.50;101119.53;10398672;28;20048;-56
2023/09/24 01:52:05;;;;;;;3.58;1.98;;;;;;;11.44;67.59;101125.06;10426509;28;20389;-54
2023/09/24 01:57:07;;;;;;;6.72;2.35;;;;;;;11.37;67.39;101126.72;10429870;28;20071;-53
2023/09/24 02:02:09;;;;;;;5.85;1.75;;;;;;;11.38;67.33;101130.28;10421054;28;20040;-54
2023/09/24 02:07:12;;;;;;;4.88;2.10;;;;;;;11.35;67.67;101150.25;10423054;28;20045;-55
2023/09/24 02:12:13;;;;;;;5.93;1.90;;;;;;;11.27;67.66;101137.59;10415714;28;20103;-55
2023/09/24 02:17:15;;;;;;;6.53;2.45;;;;;;;11.22;67.74;101139.13;10419475;28;20083;-54
2023/09/24 02:22:17;;;;;;;3.60;2.08;;;;;;;11.20;67.77;101141.13;10424825;28;20037;-56
2023/09/24 02:27:18;;;;;;;4.22;2.45;;;;;;;11.19;68.05;101150.19;10420269;28;20053;-57
2023/09/24 02:32:20;;;;;;;7.60;2.25;;;;;;;11.19;67.84;101161.78;10419907;28;20049;-57
2023/09/24 02:37:22;;;;;;;2.92;1.80;;;;;;;11.13;68.12;101162.44;10421134;28;20068;-55
2023/09/24 02:42:25;;;;;;;5.00;2.38;;;;;;;11.13;68.09;101175.06;10422306;28;20538;-56
2023/09/24 02:47:27;;;;;;;7.35;3.28;;;;;;;11.10;67.82;101179.75;10419832;28;20064;-55
2023/09/24 02:52:29;;;;;;;3.67;2.05;;;;;;;10.97;68.25;101176.63;10422380;28;20323;-56
2023/09/24 02:57:30;;;;;;;4.45;1.73;;;;;;;10.99;67.87;101181.84;10422447;28;20514;-56
2023/09/24 03:02:32;;;;;;;6.65;1.60;;;;;;;10.98;68.05;101181.03;10433830;28;20053;-56
2023/09/24 03:07:34;;;;;;;3.60;2.28;;;;;;;10.94;68.07;101190.41;10429684;28;20079;-56
2023/09/24 03:12:35;;;;;;;3.88;1.85;;;;;;;10.91;68.00;101198.78;10415739;28;20052;-56
2023/09/24 03:17:41;;;;;;;5.63;1.83;;;;;;;10.87;68.12;101211.69;10427479;28;20041;-56
2023/09/24 03:22:46;;;;;;;3.10;1.70;;;;;;;10.79;68.40;101208.13;10429818;28;20059;-56
2023/09/24 03:27:53;;;;;;;5.53;1.58;;;;;;;10.76;68.44;101213.78;10424735;28;20459;-54
2023/09/24 03:32:56;;;;;;;4.30;1.47;;;;;;;10.75;68.35;101225.56;10430171;28;20140;-58
2023/09/24 03:37:58;;;;;;;7.43;2.50;;;;;;;10.66;68.11;101227.31;10431170;28;20396;-57
2023/09/24 03:42:59;;;;;;;6.10;1.95;;;;;;;10.52;68.68;101237.66;10428478;28;20555;-56
2023/09/24 03:48:02;;;;;;;3.17;1.65;;;;;;;10.54;68.47;101237.47;10428614;28;20046;-57
2023/09/24 03:53:03;;;;;;;10.55;2.17;;;;;;;10.58;68.66;101236.16;10406699;28;20736;-56
2023/09/24 03:58:08;;;;;;;5.05;2.65;;;;;;;10.54;68.37;101237.47;10425167;28;20080;-56
2023/09/24 04:03:09;;;;;;;7.40;1.98;;;;;;;10.50;68.85;101234.25;10427824;28;20404;-58
2023/09/24 04:08:11;;;;;;;3.40;2.25;;;;;;;10.49;68.46;101237.09;10428728;28;20044;-58
2023/09/24 04:13:13;;;;;;;7.35;1.60;;;;;;;10.41;69.01;101253.16;10409045;28;20037;-58
2023/09/24 04:18:14;;;;;;;3.38;1.80;;;;;;;10.30;69.06;101257.72;10426644;28;20049;-57
2023/09/24 04:23:16;;;;;;;3.75;2.28;;;;;;;10.28;69.23;101254.31;10429778;28;20053;-56
2023/09/24 04:28:19;;;;;;;4.30;1.70;;;;;;;10.34;69.00;101263.66;10428305;28;20049;-57
2023/09/24 04:33:21;;;;;;;5.97;1.67;;;;;;;10.24;69.35;101278.97;10403734;28;20497;-57
2023/09/24 04:38:22;;;;;;;7.65;2.00;;;;;;;10.13;69.94;101267.44;10428523;28;20151;-57
2023/09/24 04:43:24;;;;;;;3.88;2.05;;;;;;;10.20;69.76;101283.78;10424015;28;20127;-58
2023/09/24 04:48:25;;;;;;;4.35;1.70;;;;;;;10.28;69.65;101283.03;10414831;28;20420;-58
2023/09/24 04:53:27;;;;;;;4.63;1.48;;;;;;;10.32;69.42;101298.72;10414071;28;20103;-58
2023/09/24 04:58:30;;;;;;;4.40;1.60;;;;;;;10.34;69.38;101298.59;10423939;28;20512;-57
2023/09/24 05:03:35;;;;;;;4.63;1.38;;;;;;;10.36;69.32;101304.66;10428211;28;21235;-59
2023/09/24 05:08:37;;;;;;;1.90;1.27;;;;;;;10.32;69.38;101319.38;10418265;28;20053;-59
2023/09/24 05:13:40;;;;;;;5.70;1.23;;;;;;;10.32;69.29;101330.16;10423767;28;20140;-59
2023/09/24 05:18:42;;;;;;;4.80;1.48;;;;;;;10.42;69.26;101354.28;10410697;28;20049;-59
2023/09/24 05:23:45;;;;;;;4.07;1.83;;;;;;;10.44;69.06;101346.91;10404877;28;20144;-57
2023/09/24 05:28:48;;;;;;;3.15;1.20;;;;;;;10.44;69.34;101358.50;10427737;28;20124;-59
2023/09/24 05:33:50;;;;;;;4.97;2.00;;;;;;;10.47;69.17;101358.22;10409763;28;20054;-59
2023/09/24 05:38:51;;;;;;;3.17;2.05;;;;;;;10.50;68.79;101359.75;10415371;28;20128;-59
2023/09/24 05:43:54;;;;;;;5.93;1.90;;;;;;;10.52;68.97;101371.19;10417611;28;20049;-57
2023/09/24 05:48:58;;;;;;;6.82;2.72;;;;;;;10.54;69.01;101373.72;10419962;28;20053;-59
2023/09/24 05:53:59;;;;;;;3.92;1.90;;;;;;;10.59;69.39;101395.66;10405770;28;20080;-61
2023/09/24 05:59:01;;;;;;;2.63;1.88;;;;;;;10.66;69.17;101402.09;10419892;28;20063;-60
2023/09/24 06:04:03;;;;;;;6.82;2.13;;;;;;;10.73;69.06;101405.06;10423981;28;20067;-61
2023/09/24 06:09:09;;;;;;;3.88;2.63;;;;;;;10.79;69.16;101413.34;10423031;28;20132;-59
2023/09/24 06:14:11;;;;;;;5.63;2.40;;;;;;;10.88;69.25;101411.59;10419485;28;20136;-59
2023/09/24 06:19:13;;;;;;;5.50;2.17;;;;;;;10.97;68.87;101409.84;10425729;28;20045;-60
2023/09/24 06:24:15;;;;;;;4.32;2.58;;;;;;;11.05;69.18;101416.16;10423550;28;20079;-59
2023/09/24 06:29:16;;;;;;;5.38;2.05;;;;;;;11.16;69.19;101420.47;10397696;28;20049;-60
2023/09/24 06:34:18;;;;;;;4.78;2.50;;;;;;;11.25;69.67;101416.84;10427738;28;20055;-60
2023/09/24 06:39:20;;;;;;;4.82;2.35;;;;;;;11.37;69.85;101422.84;10409262;28;20404;-58
2023/09/24 06:44:23;;;;;;;5.75;3.00;;;;;;;11.55;69.87;101420.13;10424879;28;20049;-58
2023/09/24 06:49:27;;;;;;;5.28;2.95;;;;;;;11.68;69.88;101425.94;10424389;28;20084;-59
2023/09/24 06:54:31;;;;;;;10.05;3.65;;;;;;;11.81;69.79;101430.06;10402403;28;20160;-59
2023/09/24 06:59:33;;;;;;;6.25;3.60;;;;;;;12.05;69.92;101430.28;10423424;28;20053;-59
2023/09/24 07:04:34;;;;;;;6.25;3.92;;;;;;;12.19;70.10;101436.09;10404100;28;20056;-60
2023/09/24 07:09:36;;;;;;;5.80;3.30;;;;;;;12.40;69.73;101425.78;10423512;28;20057;-59
2023/09/24 07:14:38;;;;;;;6.45;3.08;;;;;;;12.59;69.63;101434.59;10421951;28;20052;-59
2023/09/24 07:19:40;;;;;;;4.20;3.15;;;;;;;12.62;69.78;101434.28;10402298;28;20052;-59
2023/09/24 07:24:41;;;;;;;6.25;2.80;;;;;;;12.75;69.93;101429.25;10423985;28;20056;-60
2023/09/24 07:29:43;;;;;;;5.90;2.97;;;;;;;12.90;69.79;101438.41;10418377;28;20159;-60
2023/09/24 07:34:46;;;;;;;12.48;3.22;;;;;;;13.05;69.90;101427.84;10421360;28;20047;-61
2023/09/24 07:39:49;;;;;;;4.78;2.63;;;;;;;13.29;69.46;101427.06;10414736;28;20064;-60
2023/09/24 07:44:51;;;;;;;5.90;2.78;;;;;;;13.51;69.48;101422.00;10421691;28;20059;-58
2023/09/24 07:49:52;;;;;;;7.80;3.47;;;;;;;13.73;69.12;101436.69;10412490;28;20056;-60
2023/09/24 07:54:57;;;;;;;4.90;2.95;;;;;;;13.96;68.99;101434.16;10410936;28;20563;-59
2023/09/24 07:59:58;;;;;;;7.38;3.33;;;;;;;14.13;68.79;101434.94;10426339;28;20411;-60
2023/09/24 08:05:00;;;;;;;7.32;3.10;;;;;;;14.30;68.70;101438.44;10428288;28;20543;-59
2023/09/24 08:10:01;;;;;;;6.15;2.65;;;;;;;14.50;68.50;101438.88;10427074;28;20045;-70
2023/09/24 08:15:04;;;;;;;4.82;2.58;;;;;;;14.68;68.20;101441.38;10423224;28;20068;-63
2023/09/24 08:20:07;;;;;;;5.10;2.20;;;;;;;14.85;67.46;101442.16;10425809;28;20044;-63
2023/09/24 08:25:08;;;;;;;4.07;2.25;;;;;;;14.84;67.86;101444.00;10430563;28;20047;-64
2023/09/24 08:30:10;;;;;;;4.32;1.95;;;;;;;15.12;67.38;101446.22;10421580;28;20100;-63
2023/09/24 08:35:12;;;;;;;4.90;2.40;;;;;;;15.19;67.28;101451.78;10422641;28;20053;-62
2023/09/24 08:40:15;;;;;;;5.45;2.55;;;;;;;15.18;67.30;101450.91;10426930;28;20399;-60
2023/09/24 08:45:21;;;;;;;4.22;2.13;;;;;;;15.24;67.04;101452.06;10420035;28;20061;-61
2023/09/24 08:50:22;;;;;;;3.00;1.67;;;;;;;15.46;66.21;101445.81;10429055;28;20044;-59
2023/09/24 08:55:24;;;;;;;5.22;1.70;;;;;;;15.66;66.07;101448.88;10425914;28;20124;-58
2023/09/24 09:00:26;;;;;;;5.03;2.72;;;;;;;15.86;65.70;101448.41;10408755;28;20096;-59
2023/09/24 09:05:27;;;;;;;3.42;1.40;;;;;;;16.08;65.40;101443.09;10428363;28;20049;-58
2023/09/24 09:10:31;;;;;;;6.97;2.60;;;;;;;16.24;65.37;101457.31;10427293;28;20076;-59
2023/09/24 09:15:33;;;;;;;4.25;1.67;;;;;;;16.47;64.93;101442.84;10422491;28;20064;-58
2023/09/24 09:20:43;;;;;;;3.28;1.73;;;;;;;16.65;64.22;101446.00;10423708;28;20048;-59
2023/09/24 09:25:48;;;;;;;5.50;1.33;;;;;;;16.83;64.19;101439.34;10423300;28;20144;-63
2023/09/24 09:31:07;;;;;;;2.13;1.63;;;;;;;16.98;63.92;101434.75;10428228;28;20060;-63
2023/09/24 09:36:26;;;;;;;7.07;1.17;;;;;;;17.18;63.50;101443.09;10419140;28;20584;-63
2023/09/24 09:41:32;;;;;;;5.78;0.93;;;;;;;17.32;62.81;101440.50;10423261;28;20049;-63
2023/09/24 09:46:37;;;;;;;7.07;1.33;;;;;;;17.51;62.42;101422.72;10419654;28;20053;-62
2023/09/24 09:51:46;;;;;;;5.45;1.30;;;;;;;17.69;61.91;101425.78;10425276;28;20050;-59
2023/09/24 09:56:48;;;;;;;4.68;1.00;;;;;;;17.97;61.38;101417.69;10419117;28;20528;-62
2023/09/24 10:01:50;;;;;;;2.97;0.70;;;;;;;18.19;60.75;101415.72;10420006;28;20049;-63
2023/09/24 10:06:52;;;;;;;2.92;1.35;;;;;;;18.29;60.04;101412.66;10424312;28;20037;-63
2023/09/24 10:11:55;;;;;;;1.73;1.15;;;;;;;18.53;59.73;101410.47;10424329;28;20049;-59
2023/09/24 10:17:22;;;;;;;1.58;0.80;;;;;;;18.82;58.98;101393.00;10423972;28;20063;-60
2023/09/24 10:22:31;;;;;;;4.45;0.98;;;;;;;19.22;58.02;101391.19;10425679;28;20049;-58
2023/09/24 10:27:32;;;;;;;3.15;1.00;;;;;;;19.88;56.95;101389.53;10421703;28;20056;-59
2023/09/24 10:32:44;;;;;;;4.00;1.00;;;;;;;20.17;56.03;101382.75;10425592;28;20055;-57
2023/09/24 10:37:58;;;;;;;2.95;0.80;;;;;;;20.37;55.50;101382.69;10418864;28;20041;-57
2023/09/24 10:43:10;;;;;;;3.10;0.90;;;;;;;20.55;54.51;101372.97;10413784;28;20060;-57
2023/09/24 10:48:12;;;;;;;7.60;1.08;;;;;;;20.84;54.71;101371.59;10420466;28;20049;-57
2023/09/24 10:53:18;;;;;;;6.47;1.30;;;;;;;21.19;53.42;101357.50;10426080;28;20044;-57
2023/09/24 10:58:19;;;;;;;3.63;0.90;;;;;;;21.44;52.87;101360.25;10422350;28;20061;-57
2023/09/24 11:03:21;;;;;;;1.77;1.00;;;;;;;21.51;52.82;101365.69;10422001;28;20056;-58
2023/09/24 11:08:27;;;;;;;2.30;1.17;;;;;;;21.56;52.26;101353.00;10422014;28;20052;-57
2023/09/24 11:13:28;;;;;;;2.38;1.00;;;;;;;21.82;51.76;101359.28;10423077;28;20050;-58
2023/09/24 11:18:32;;;;;;;2.88;0.50;;;;;;;22.22;50.17;101356.13;10421518;28;20048;-57
2023/09/24 11:23:37;;;;;;;1.77;0.50;;;;;;;22.85;48.03;101352.16;10425870;28;20051;-57
2023/09/24 11:28:39;;;;;;;1.83;0.40;;;;;;;23.07;46.86;101351.66;10412676;28;20124;-56
2023/09/24 11:33:40;;;;;;;4.13;0.70;;;;;;;22.98;46.38;101353.84;10416512;28;20061;-57
2023/09/24 11:38:41;;;;;;;1.00;0.57;;;;;;;23.06;46.18;101339.00;10407684;28;20056;-56
2023/09/24 11:43:55;;;;;;;0.98;0.30;;;;;;;23.31;44.79;101333.34;10420639;28;20496;-59
2023/09/24 11:48:58;;;;;;;2.08;1.13;;;;;;;23.58;44.50;101330.97;10418290;28;20053;-59
2023/09/24 11:54:01;;;;;;;1.67;0.47;;;;;;;23.71;44.20;101319.72;10417521;28;20140;-60
2023/09/24 11:59:03;;;;;;;2.95;0.50;;;;;;;24.23;43.36;101316.22;10413818;28;20042;-60
2023/09/24 12:04:05;;;;;;;2.72;0.50;;;;;;;24.12;42.38;101315.16;10414021;28;20055;-59
2023/09/24 12:09:06;;;;;;;2.80;0.40;;;;;;;25.12;40.34;101303.88;10414142;28;20044;-60
2023/09/24 12:14:08;;;;;;;2.38;0.50;;;;;;;25.40;39.97;101307.66;10420420;28;20080;-59
2023/09/24 12:19:09;;;;;;;1.20;0.40;;;;;;;25.52;39.28;101306.44;10420488;28;20041;-59
2023/09/24 12:24:11;;;;;;;3.50;0.40;;;;;;;25.77;38.74;101296.91;10415566;28;20064;-59
2023/09/24 12:29:12;;;;;;;1.50;0.38;;;;;;;25.88;39.24;101293.16;10424109;28;20051;-59
2023/09/24 12:34:14;;;;;;;2.13;0.50;;;;;;;25.90;38.51;101295.66;10418097;28;20160;-59
2023/09/24 12:39:20;;;;;;;0.93;0.40;;;;;;;25.97;38.58;101287.25;10428001;28;20080;-59
2023/09/24 12:44:21;;;;;;;4.78;1.85;;;;;;;26.20;37.92;101297.19;10425800;28;20056;-60
2023/09/24 12:49:23;;;;;;;1.60;0.20;;;;;;;26.14;38.01;101296.28;10424406;28;20444;-59
2023/09/24 12:54:24;;;;;;;0.38;0.20;;;;;;;26.23;37.49;101289.22;10426307;28;20058;-58
2023/09/24 12:59:26;;;;;;;1.50;0.35;;;;;;;26.45;36.81;101286.44;10419528;28;20604;-58
2023/09/24 13:04:27;;;;;;;0.43;0.20;;;;;;;26.23;36.65;101278.19;10427620;28;20073;-57
2023/09/24 13:09:29;;;;;;;0.93;0.20;;;;;;;26.18;35.58;101285.56;10432188;28;20060;-57
2023/09/24 13:14:31;;;;;;;2.15;0.32;;;;;;;25.97;35.72;101273.47;10425827;28;20503;-60
2023/09/24 13:19:32;;;;;;;0.65;0.22;;;;;;;25.94;35.14;101265.72;10426033;28;20049;-58
2023/09/24 13:24:38;;;;;;;1.35;0.30;;;;;;;26.28;34.89;101258.13;10428987;28;20127;-57
2023/09/24 13:29:39;;;;;;;2.10;0.77;;;;;;;26.52;34.95;101259.50;10431873;28;20143;-58
2023/09/24 13:34:41;;;;;;;2.92;0.20;;;;;;;26.91;34.41;101245.50;10425204;28;20126;-58
2023/09/24 13:39:43;;;;;;;0.95;0.20;;;;;;;26.91;34.17;101250.22;10427949;28;20064;-58
2023/09/24 13:44:44;;;;;;;0.60;0.20;;;;;;;27.13;33.34;101235.47;10426190;28;20041;-58
2023/09/24 13:49:46;;;;;;;0.82;0.20;;;;;;;27.33;33.84;101235.66;10416360;28;20059;-58
2023/09/24 13:54:48;;;;;;;0.82;0.20;;;;;;;28.17;33.08;101235.78;10412920;28;20492;-60
2023/09/24 13:59:49;;;;;;;0.70;0.30;;;;;;;30.64;29.68;101223.03;10409418;28;20052;-59
2023/09/24 14:04:54;;;;;;;0.90;0.30;;;;;;;33.48;25.96;101221.72;10402770;28;20052;-63
2023/09/24 14:15:16;;;;;;;0.80;0.20;;;;;;;34.76;24.65;101218.91;10424728;28;20135;-62
2023/09/24 14:20:18;;;;;;;1.70;0.20;;;;;;;34.48;24.35;101219.00;10419004;28;20063;-63
2023/09/24 14:25:19;;;;;;;1.02;0.20;;;;;;;34.16;24.62;101212.50;10422440;28;20457;-64
2023/09/24 14:30:21;;;;;;;2.78;0.85;;;;;;;32.03;26.98;101216.06;10418899;28;20055;-60
2023/09/24 14:35:22;;;;;;;3.13;0.30;;;;;;;32.31;26.51;101203.97;10396386;28;20099;-66
2023/09/24 14:40:24;;;;;;;1.75;0.25;;;;;;;31.21;28.23;101203.94;10408044;28;20068;-64
2023/09/24 14:45:28;;;;;;;1.13;0.20;;;;;;;31.81;26.89;101196.03;10419239;28;20153;-62
2023/09/24 14:50:30;;;;;;;0.88;0.17;;;;;;;31.92;26.96;101193.91;10404092;28;20140;-65
2023/09/24 14:55:38;;;;;;;0.30;0.20;;;;;;;31.70;26.75;101182.56;10437006;28;20180;-67
2023/09/24 15:00:39;;;;;;;1.27;0.20;;;;;;;30.86;27.46;101189.25;10443592;28;20633;-65
2023/09/24 15:05:42;;;;;;;1.35;0.20;;;;;;;30.08;28.68;101185.41;10412350;28;20056;-65
2023/09/24 15:10:43;;;;;;;0.57;0.20;;;;;;;29.70;29.28;101179.50;10421738;28;20155;-59
2023/09/24 15:15:47;;;;;;;2.95;0.30;;;;;;;29.22;29.83;101190.16;10403526;28;20053;-60
2023/09/24 15:20:49;;;;;;;0.82;0.15;;;;;;;28.72;30.29;101194.66;10419037;28;20057;-61
2023/09/24 15:25:51;;;;;;;1.40;0.30;;;;;;;28.70;30.23;101191.34;10423824;28;20072;-59
2023/09/24 15:30:53;;;;;;;1.40;0.28;;;;;;;28.79;30.13;101186.88;10415404;28;20776;-60
2023/09/24 15:35:54;;;;;;;4.68;0.40;;;;;;;28.65;30.31;101179.16;10424102;28;20040;-61
2023/09/24 15:40:56;;;;;;;1.05;0.20;;;;;;;28.14;30.77;101183.78;10417622;28;20057;-61
2023/09/24 15:45:58;;;;;;;0.80;0.20;;;;;;;27.44;31.50;101184.88;10419875;28;20045;-60
2023/09/24 15:50:59;;;;;;;1.08;0.30;;;;;;;26.88;32.97;101184.53;10417787;28;20563;-61
2023/09/24 15:56:00;;;;;;;0.98;0.20;;;;;;;26.50;33.40;101176.19;10377211;28;20416;-60
2023/09/24 16:01:02;;;;;;;1.90;0.30;;;;;;;26.27;34.03;101191.13;10377689;28;20064;-59
2023/09/24 16:06:04;;;;;;;2.80;0.77;;;;;;;25.82;34.81;101188.69;10370934;28;20054;-61
2023/09/24 16:11:05;;;;;;;2.25;0.40;;;;;;;25.32;35.61;101182.28;10377796;28;20053;-61
2023/09/24 16:16:07;;;;;;;1.27;0.40;;;;;;;25.00;36.32;101191.16;10374725;28;20050;-60
2023/09/24 16:21:08;;;;;;;1.20;0.40;;;;;;;24.78;36.18;101184.72;10377031;28;20049;-64
2023/09/24 16:26:10;;;;;;;0.65;0.28;;;;;;;24.39;37.08;101184.56;10379245;28;20137;-63
2023/09/24 16:31:11;;;;;;;1.10;0.40;;;;;;;24.06;37.08;101199.94;10363754;28;20053;-63
2023/09/24 16:36:13;;;;;;;1.15;0.43;;;;;;;23.73;37.79;101193.19;10373291;28;20128;-61
2023/09/24 16:41:16;;;;;;;0.75;0.40;;;;;;;23.48;37.68;101194.34;10376086;28;20052;-62
2023/09/24 16:46:17;;;;;;;0.88;0.30;;;;;;;23.15;38.36;101192.22;10375635;28;20065;-62
2023/09/24 16:51:19;;;;;;;1.85;0.35;;;;;;;22.81;39.08;101199.31;10377576;28;20547;-62
2023/09/24 16:56:20;;;;;;;1.30;0.20;;;;;;;22.54;39.01;101191.53;10413112;28;20053;-61
2023/09/24 17:01:24;;;;;;;1.95;0.30;;;;;;;22.26;39.49;101195.75;10416924;28;20148;-60
2023/09/24 17:06:26;;;;;;;0.40;0.20;;;;;;;22.04;40.03;101202.75;10414188;28;20061;-60
2023/09/24 17:11:27;;;;;;;0.52;0.30;;;;;;;21.75;40.56;101197.03;10411402;28;20468;-60
2023/09/24 17:16:29;;;;;;;0.43;0.30;;;;;;;21.44;41.08;101192.56;10411420;28;20300;-62
2023/09/24 17:21:31;;;;;;;2.95;0.30;;;;;;;21.19;41.76;101190.69;10417739;28;20749;-63
2023/09/24 17:26:32;;;;;;;1.55;0.35;;;;;;;20.97;42.11;101198.44;10418718;28;20053;-61
2023/09/24 17:31:34;;;;;;;1.05;0.40;;;;;;;20.76;42.53;101192.31;10418291;28;20542;-60
2023/09/24 17:36:35;;;;;;;0.80;0.50;;;;;;;20.55;42.91;101198.13;10416924;28;20050;-61
2023/09/24 17:41:37;;;;;;;1.77;0.55;;;;;;;20.34;43.97;101193.84;10403345;28;20053;-61
2023/09/24 17:46:38;;;;;;;3.10;0.98;;;;;;;20.11;45.00;101197.16;10413456;28;20049;-60
2023/09/24 17:51:40;;;;;;;2.97;0.70;;;;;;;19.92;45.44;101201.66;10413201;28;20072;-58
2023/09/24 17:56:42;;;;;;;2.80;0.80;;;;;;;19.70;45.77;101209.28;10407255;28;20061;-58
2023/09/24 18:01:44;;;;;;;2.67;2.05;;;;;;;19.46;46.34;101203.47;10421971;28;20076;-58
2023/09/24 18:06:45;;;;;;;3.88;1.67;;;;;;;19.24;47.36;101207.50;10411038;28;20060;-58
2023/09/24 18:11:47;;;;;;;1.58;0.75;;;;;;;19.05;47.82;101209.22;10420539;28;20060;-57
2023/09/24 18:16:48;;;;;;;2.65;1.00;;;;;;;18.82;48.78;101213.22;10415462;28;20052;-58
2023/09/24 18:21:50;;;;;;;7.15;1.58;;;;;;;18.64;49.05;101213.75;10414377;28;20056;-57
2023/09/24 18:26:53;;;;;;;1.83;1.33;;;;;;;18.46;49.42;101216.28;10414715;28;20044;-57
2023/09/24 18:31:54;;;;;;;2.88;1.40;;;;;;;18.30;49.86;101222.94;10411417;28;20049;-57
2023/09/24 18:36:56;;;;;;;2.15;1.13;;;;;;;18.15;50.32;101226.69;10405014;28;20072;-57
2023/09/24 18:41:58;;;;;;;2.22;0.70;;;;;;;18.02;50.83;101237.50;10383405;28;20057;-58
2023/09/24 18:46:59;;;;;;;2.42;0.50;;;;;;;17.89;51.29;101240.16;10415780;28;20049;-57
2023/09/24 18:52:02;;;;;;;2.50;0.68;;;;;;;17.72;52.04;101240.47;10409402;28;20073;-57
2023/09/24 18:57:03;;;;;;;3.00;0.80;;;;;;;17.59;52.60;101248.56;10416936;28;20049;-58
2023/09/24 19:02:05;;;;;;;3.75;1.05;;;;;;;17.43;53.01;101236.13;10413137;28;20040;-58
2023/09/24 19:07:10;;;;;;;3.08;0.77;;;;;;;17.25;53.57;101242.06;10415232;28;20538;-58
2023/09/24 19:12:12;;;;;;;1.42;0.60;;;;;;;17.07;53.96;101247.16;10400418;28;20060;-57
2023/09/24 19:17:15;;;;;;;4.03;0.90;;;;;;;16.90;54.67;101243.88;10407101;28;20841;-57
2023/09/24 19:22:19;;;;;;;1.25;0.50;;;;;;;16.74;54.84;101240.34;10409951;28;20694;-56
2023/09/24 19:27:21;;;;;;;3.97;0.68;;;;;;;16.56;55.39;101240.81;10411949;28;20052;-58
2023/09/24 19:32:24;;;;;;;2.92;0.60;;;;;;;16.44;55.74;101245.09;10410523;28;20044;-57
2023/09/24 19:37:26;;;;;;;2.10;0.80;;;;;;;16.33;56.01;101249.16;10397192;28;20136;-57
2023/09/24 19:42:28;;;;;;;2.55;1.35;;;;;;;16.25;56.41;101244.69;10426901;28;20107;-58
2023/09/24 19:47:29;;;;;;;4.53;1.40;;;;;;;16.14;56.52;101252.47;10430755;28;20056;-57
2023/09/24 19:52:31;;;;;;;2.10;1.20;;;;;;;16.02;57.03;101257.53;10426152;28;20056;-56
2023/09/24 19:57:33;;;;;;;2.45;0.60;;;;;;;15.91;57.23;101255.31;10427527;28;20049;-57
2023/09/24 20:02:34;;;;;;;2.85;0.70;;;;;;;15.77;57.71;101243.44;10423875;28;20397;-55
2023/09/24 20:07:38;;;;;;;1.20;0.60;;;;;;;15.67;57.85;101239.13;10424520;28;20052;-55
2023/09/24 20:12:40;;;;;;;2.05;0.75;;;;;;;15.51;58.54;101244.72;10420181;28;20057;-57
2023/09/24 20:17:41;;;;;;;2.05;0.88;;;;;;;15.31;58.93;101249.03;10416164;28;20049;-56
2023/09/24 20:22:43;;;;;;;2.83;0.70;;;;;;;15.24;59.24;101244.34;10426512;28;20056;-58
2023/09/24 20:27:46;;;;;;;2.10;0.80;;;;;;;15.17;59.44;101246.09;10419677;28;20629;-55
2023/09/24 20:32:48;;;;;;;1.60;0.75;;;;;;;15.03;60.08;101241.50;10425434;28;20056;-58
2023/09/24 20:37:50;;;;;;;4.70;0.95;;;;;;;15.05;59.98;101243.00;10419833;28;20111;-55
2023/09/24 20:42:51;;;;;;;1.77;0.90;;;;;;;15.01;60.13;101243.56;10428241;28;20055;-56
2023/09/24 20:47:53;;;;;;;3.55;1.42;;;;;;;14.91;60.25;101249.22;10430889;28;20052;-55
2023/09/24 20:52:55;;;;;;;2.45;0.80;;;;;;;14.85;60.19;101245.38;10420219;28;20059;-56
2023/09/24 20:57:57;;;;;;;3.92;1.00;;;;;;;14.76;60.66;101242.91;10424479;28;20052;-56
2023/09/24 21:02:59;;;;;;;1.50;0.75;;;;;;;14.68;60.90;101236.53;10408806;28;20057;-59
2023/09/24 21:08:00;;;;;;;4.43;1.05;;;;;;;14.64;60.98;101247.91;10428091;28;20045;-57
2023/09/24 21:13:02;;;;;;;3.50;0.75;;;;;;;14.55;61.32;101254.38;10422494;28;20049;-57
2023/09/24 21:18:04;;;;;;;2.47;0.90;;;;;;;14.46;61.51;101250.88;10406874;28;20127;-57
2023/09/24 21:23:06;;;;;;;1.23;0.68;;;;;;;14.39;61.62;101255.31;10424237;28;20049;-57
2023/09/24 21:28:08;;;;;;;2.03;1.00;;;;;;;14.37;61.83;101249.25;10425647;28;20063;-57
2023/09/24 21:33:09;;;;;;;6.82;1.30;;;;;;;14.28;61.94;101241.19;10423565;28;20132;-56
2023/09/24 21:38:11;;;;;;;3.50;0.93;;;;;;;14.21;61.98;101250.19;10427074;28;20510;-58
2023/09/24 21:43:12;;;;;;;3.70;1.27;;;;;;;14.08;62.44;101242.66;10420782;28;20055;-57
2023/09/24 21:48:14;;;;;;;2.00;1.10;;;;;;;14.03;62.54;101250.44;10417164;28;20044;-58
2023/09/24 21:53:15;;;;;;;1.00;0.68;;;;;;;13.94;62.71;101251.50;10415849;28;20400;-57
2023/09/24 21:58:18;;;;;;;1.80;1.30;;;;;;;13.83;63.18;101245.47;10420995;28;20678;-58
2023/09/24 22:03:19;;;;;;;2.38;0.80;;;;;;;13.76;63.25;101249.88;10407743;28;20522;-57
2023/09/24 22:08:21;;;;;;;3.50;1.00;;;;;;;13.71;63.28;101243.34;10419364;28;20083;-56
2023/09/24 22:13:23;;;;;;;3.08;0.80;;;;;;;13.66;63.54;101242.00;10419653;28;20435;-58
2023/09/24 22:18:24;;;;;;;2.08;0.80;;;;;;;13.61;63.63;101233.56;10426566;28;20176;-58
2023/09/24 22:23:26;;;;;;;2.80;0.77;;;;;;;13.58;63.54;101228.50;10423074;28;20083;-58
2023/09/24 22:28:27;;;;;;;2.03;0.73;;;;;;;13.48;63.67;101225.16;10427317;28;20057;-59
2023/09/24 22:33:31;;;;;;;4.68;1.05;;;;;;;13.44;63.98;101213.00;10420122;28;20053;-57
2023/09/24 22:38:32;;;;;;;2.20;0.90;;;;;;;13.36;64.08;101208.47;10424432;28;20115;-58
2023/09/24 22:43:34;;;;;;;1.20;1.08;;;;;;;13.29;64.28;101216.44;10416877;28;20053;-58
2023/09/24 22:48:35;;;;;;;1.70;0.80;;;;;;;13.14;64.75;101210.03;10418097;28;20967;-57
2023/09/24 22:53:37;;;;;;;1.27;0.73;;;;;;;13.01;65.06;101202.47;10423964;28;20120;-57
2023/09/24 22:58:38;;;;;;;2.42;0.82;;;;;;;12.99;65.01;101209.03;10419892;28;20049;-58
2023/09/24 23:03:39;;;;;;;6.05;0.90;;;;;;;13.03;64.99;101202.25;10424123;28;20512;-58
2023/09/24 23:08:41;;;;;;;3.05;1.08;;;;;;;13.03;64.89;101200.44;10418180;28;20065;-57
2023/09/24 23:13:42;;;;;;;1.25;0.80;;;;;;;12.98;64.81;101188.47;10418639;28;20045;-59